sensor_id;sensor_type;location;lat;lon;timestamp;P1;durP1;ratioP1;P2;durP2;ratioP2
74926;SDS011;63488;48.092;-1.640;2023-05-19T00:01:33;4.38;;;1.88;;
74926;SDS011;63488;48.092;-1.640;2023-05-19T00:04:01;3.85;;;1.65;;
74926;SDS011;63488;48.092;-1.640;2023-05-19T00:06:28;6.50;;;2.28;;
74926;SDS011;63488;48.092;-1.640;2023-05-19T00:09:00;3.30;;;2.00;;
74926;SDS011;63488;48.092;-1.640;2023-05-19T00:11:26;6.57;;;2.33;;
74926;SDS011;63488;48.092;-1.640;2023-05-19T00:13:52;6.43;;;2.08;;
74926;SDS011;63488;48.092;-1.640;2023-05-19T00:16:18;6.00;;;1.90;;
74926;SDS011;63488;48.092;-1.640;2023-05-19T00:18:43;6.53;;;2.33;;
74926;SDS011;63488;48.092;-1.640;2023-05-19T00:21:09;4.85;;;1.92;;
74926;SDS011;63488;48.092;-1.640;2023-05-19T00:23:34;4.50;;;1.77;;
74926;SDS011;63488;48.092;-1.640;2023-05-19T00:26:00;4.18;;;1.90;;
74926;SDS011;63488;48.092;-1.640;2023-05-19T00:28:25;7.10;;;2.13;;
74926;SDS011;63488;48.092;-1.640;2023-05-19T00:30:50;6.63;;;1.90;;
74926;SDS011;63488;48.092;-1.640;2023-05-19T00:33:15;5.05;;;1.92;;
74926;SDS011;63488;48.092;-1.640;2023-05-19T00:35:41;4.82;;;2.10;;
74926;SDS011;63488;48.092;-1.640;2023-05-19T00:38:06;5.85;;;1.92;;
74926;SDS011;63488;48.092;-1.640;2023-05-19T00:40:33;5.22;;;2.40;;
74926;SDS011;63488;48.092;-1.640;2023-05-19T00:42:59;5.90;;;2.00;;
74926;SDS011;63488;48.092;-1.640;2023-05-19T00:45:24;5.13;;;2.10;;
74926;SDS011;63488;48.092;-1.640;2023-05-19T00:47:50;7.13;;;2.40;;
74926;SDS011;63488;48.092;-1.640;2023-05-19T00:50:15;4.55;;;2.35;;
74926;SDS011;63488;48.092;-1.640;2023-05-19T00:52:40;6.70;;;2.13;;
74926;SDS011;63488;48.092;-1.640;2023-05-19T00:55:06;5.10;;;2.13;;
74926;SDS011;63488;48.092;-1.640;2023-05-19T00:57:32;4.60;;;2.05;;
74926;SDS011;63488;48.092;-1.640;2023-05-19T00:59:57;7.40;;;2.63;;
74926;SDS011;63488;48.092;-1.640;2023-05-19T01:02:22;6.85;;;2.42;;
74926;SDS011;63488;48.092;-1.640;2023-05-19T01:04:48;7.65;;;2.55;;
74926;SDS011;63488;48.092;-1.640;2023-05-19T01:07:14;6.22;;;2.35;;
74926;SDS011;63488;48.092;-1.640;2023-05-19T01:09:40;7.28;;;2.50;;
74926;SDS011;63488;48.092;-1.640;2023-05-19T01:12:06;9.30;;;2.95;;
74926;SDS011;63488;48.092;-1.640;2023-05-19T01:14:31;6.72;;;2.60;;
74926;SDS011;63488;48.092;-1.640;2023-05-19T01:17:00;7.20;;;2.47;;
74926;SDS011;63488;48.092;-1.640;2023-05-19T01:22:18;7.30;;;2.40;;
74926;SDS011;63488;48.092;-1.640;2023-05-19T01:32:43;8.00;;;3.03;;
74926;SDS011;63488;48.092;-1.640;2023-05-19T01:35:09;10.25;;;3.00;;
74926;SDS011;63488;48.092;-1.640;2023-05-19T01:37:36;10.32;;;3.38;;
74926;SDS011;63488;48.092;-1.640;2023-05-19T01:40:03;5.85;;;2.60;;
74926;SDS011;63488;48.092;-1.640;2023-05-19T01:42:28;7.35;;;2.97;;
74926;SDS011;63488;48.092;-1.640;2023-05-19T01:44:54;6.57;;;2.95;;
74926;SDS011;63488;48.092;-1.640;2023-05-19T01:47:19;7.55;;;3.65;;
74926;SDS011;63488;48.092;-1.640;2023-05-19T01:49:45;10.15;;;3.30;;
74926;SDS011;63488;48.092;-1.640;2023-05-19T01:52:10;6.05;;;3.15;;
74926;SDS011;63488;48.092;-1.640;2023-05-19T01:54:35;7.78;;;3.28;;
74926;SDS011;63488;48.092;-1.640;2023-05-19T01:57:23;7.32;;;3.10;;
74926;SDS011;63488;48.092;-1.640;2023-05-19T02:05:08;9.57;;;3.20;;
74926;SDS011;63488;48.092;-1.640;2023-05-19T02:07:42;10.07;;;3.78;;
74926;SDS011;63488;48.092;-1.640;2023-05-19T02:10:09;6.25;;;3.30;;
74926;SDS011;63488;48.092;-1.640;2023-05-19T02:12:36;8.70;;;3.75;;
74926;SDS011;63488;48.092;-1.640;2023-05-19T02:15:19;11.15;;;3.67;;
74926;SDS011;63488;48.092;-1.640;2023-05-19T02:17:45;10.38;;;3.72;;
74926;SDS011;63488;48.092;-1.640;2023-05-19T02:20:14;8.23;;;3.50;;
74926;SDS011;63488;48.092;-1.640;2023-05-19T02:22:39;10.43;;;4.10;;
74926;SDS011;63488;48.092;-1.640;2023-05-19T02:25:05;11.43;;;3.80;;
74926;SDS011;63488;48.092;-1.640;2023-05-19T02:27:31;10.30;;;3.95;;
74926;SDS011;63488;48.092;-1.640;2023-05-19T02:29:56;9.73;;;3.78;;
74926;SDS011;63488;48.092;-1.640;2023-05-19T02:32:22;10.52;;;3.78;;
74926;SDS011;63488;48.092;-1.640;2023-05-19T02:34:47;9.57;;;3.85;;
74926;SDS011;63488;48.092;-1.640;2023-05-19T02:37:13;10.10;;;4.32;;
74926;SDS011;63488;48.092;-1.640;2023-05-19T02:39:38;9.73;;;4.00;;
74926;SDS011;63488;48.092;-1.640;2023-05-19T02:42:04;9.60;;;3.85;;
74926;SDS011;63488;48.092;-1.640;2023-05-19T02:44:30;10.50;;;3.78;;
74926;SDS011;63488;48.092;-1.640;2023-05-19T02:46:55;6.78;;;4.03;;
74926;SDS011;63488;48.092;-1.640;2023-05-19T02:49:20;8.60;;;4.03;;
74926;SDS011;63488;48.092;-1.640;2023-05-19T02:51:46;10.20;;;4.10;;
74926;SDS011;63488;48.092;-1.640;2023-05-19T02:54:11;8.57;;;4.32;;
74926;SDS011;63488;48.092;-1.640;2023-05-19T02:56:36;7.68;;;3.95;;
74926;SDS011;63488;48.092;-1.640;2023-05-19T02:59:02;11.55;;;4.38;;
74926;SDS011;63488;48.092;-1.640;2023-05-19T03:01:27;10.63;;;4.50;;
74926;SDS011;63488;48.092;-1.640;2023-05-19T03:03:52;9.88;;;4.47;;
74926;SDS011;63488;48.092;-1.640;2023-05-19T03:06:18;10.05;;;4.57;;
74926;SDS011;63488;48.092;-1.640;2023-05-19T03:08:43;9.50;;;4.95;;
74926;SDS011;63488;48.092;-1.640;2023-05-19T03:11:08;9.32;;;4.82;;
74926;SDS011;63488;48.092;-1.640;2023-05-19T03:13:34;11.48;;;4.50;;
74926;SDS011;63488;48.092;-1.640;2023-05-19T03:15:59;11.57;;;4.65;;
74926;SDS011;63488;48.092;-1.640;2023-05-19T03:18:26;10.88;;;4.35;;
74926;SDS011;63488;48.092;-1.640;2023-05-19T03:20:51;9.05;;;4.25;;
74926;SDS011;63488;48.092;-1.640;2023-05-19T03:23:18;11.77;;;4.70;;
74926;SDS011;63488;48.092;-1.640;2023-05-19T03:25:44;8.85;;;3.85;;
74926;SDS011;63488;48.092;-1.640;2023-05-19T03:28:09;8.00;;;4.00;;
74926;SDS011;63488;48.092;-1.640;2023-05-19T03:30:34;8.70;;;3.90;;
74926;SDS011;63488;48.092;-1.640;2023-05-19T03:33:00;11.32;;;4.30;;
74926;SDS011;63488;48.092;-1.640;2023-05-19T03:35:25;10.30;;;3.88;;
74926;SDS011;63488;48.092;-1.640;2023-05-19T03:37:51;8.32;;;4.10;;
74926;SDS011;63488;48.092;-1.640;2023-05-19T03:40:16;11.23;;;4.70;;
74926;SDS011;63488;48.092;-1.640;2023-05-19T03:42:42;9.70;;;4.35;;
74926;SDS011;63488;48.092;-1.640;2023-05-19T03:45:08;9.50;;;4.57;;
74926;SDS011;63488;48.092;-1.640;2023-05-19T03:47:33;8.32;;;4.65;;
74926;SDS011;63488;48.092;-1.640;2023-05-19T03:49:59;12.10;;;4.53;;
74926;SDS011;63488;48.092;-1.640;2023-05-19T03:52:25;9.57;;;4.70;;
74926;SDS011;63488;48.092;-1.640;2023-05-19T03:54:50;10.50;;;4.45;;
74926;SDS011;63488;48.092;-1.640;2023-05-19T03:57:16;9.93;;;4.72;;
74926;SDS011;63488;48.092;-1.640;2023-05-19T03:59:42;9.23;;;4.32;;
74926;SDS011;63488;48.092;-1.640;2023-05-19T04:02:08;13.13;;;4.68;;
74926;SDS011;63488;48.092;-1.640;2023-05-19T04:04:33;8.57;;;4.53;;
74926;SDS011;63488;48.092;-1.640;2023-05-19T04:06:58;11.35;;;4.72;;
74926;SDS011;63488;48.092;-1.640;2023-05-19T04:09:24;9.10;;;4.47;;
74926;SDS011;63488;48.092;-1.640;2023-05-19T04:11:49;10.52;;;4.53;;
74926;SDS011;63488;48.092;-1.640;2023-05-19T04:14:15;8.77;;;4.85;;
74926;SDS011;63488;48.092;-1.640;2023-05-19T04:16:40;10.93;;;4.40;;
74926;SDS011;63488;48.092;-1.640;2023-05-19T04:19:05;9.40;;;4.30;;
74926;SDS011;63488;48.092;-1.640;2023-05-19T04:21:31;10.43;;;3.90;;
74926;SDS011;63488;48.092;-1.640;2023-05-19T04:23:56;15.55;;;4.47;;
74926;SDS011;63488;48.092;-1.640;2023-05-19T04:26:24;9.63;;;4.63;;
74926;SDS011;63488;48.092;-1.640;2023-05-19T04:28:50;6.97;;;4.30;;
74926;SDS011;63488;48.092;-1.640;2023-05-19T04:31:16;8.63;;;4.57;;
74926;SDS011;63488;48.092;-1.640;2023-05-19T04:33:41;9.40;;;4.60;;
74926;SDS011;63488;48.092;-1.640;2023-05-19T04:36:07;10.95;;;4.40;;
74926;SDS011;63488;48.092;-1.640;2023-05-19T04:38:34;9.38;;;4.13;;
74926;SDS011;63488;48.092;-1.640;2023-05-19T04:41:01;15.93;;;4.70;;
74926;SDS011;63488;48.092;-1.640;2023-05-19T04:43:26;8.93;;;5.05;;
74926;SDS011;63488;48.092;-1.640;2023-05-19T04:45:52;9.45;;;4.25;;
74926;SDS011;63488;48.092;-1.640;2023-05-19T04:48:18;10.95;;;4.15;;
74926;SDS011;63488;48.092;-1.640;2023-05-19T04:50:43;9.32;;;4.43;;
74926;SDS011;63488;48.092;-1.640;2023-05-19T04:53:08;9.68;;;4.20;;
74926;SDS011;63488;48.092;-1.640;2023-05-19T04:55:34;9.38;;;4.03;;
74926;SDS011;63488;48.092;-1.640;2023-05-19T04:57:59;8.95;;;3.95;;
74926;SDS011;63488;48.092;-1.640;2023-05-19T05:00:25;9.35;;;4.28;;
74926;SDS011;63488;48.092;-1.640;2023-05-19T05:02:50;9.98;;;4.40;;
74926;SDS011;63488;48.092;-1.640;2023-05-19T05:05:15;13.05;;;4.68;;
74926;SDS011;63488;48.092;-1.640;2023-05-19T05:07:41;11.18;;;4.45;;
74926;SDS011;63488;48.092;-1.640;2023-05-19T05:10:06;9.77;;;3.95;;
74926;SDS011;63488;48.092;-1.640;2023-05-19T05:12:32;5.75;;;3.58;;
74926;SDS011;63488;48.092;-1.640;2023-05-19T05:14:58;9.35;;;3.97;;
74926;SDS011;63488;48.092;-1.640;2023-05-19T05:17:23;7.10;;;3.97;;
74926;SDS011;63488;48.092;-1.640;2023-05-19T05:19:49;10.85;;;4.65;;
74926;SDS011;63488;48.092;-1.640;2023-05-19T05:22:15;9.80;;;3.95;;
74926;SDS011;63488;48.092;-1.640;2023-05-19T05:24:40;8.15;;;3.92;;
74926;SDS011;63488;48.092;-1.640;2023-05-19T05:27:06;8.43;;;3.90;;
74926;SDS011;63488;48.092;-1.640;2023-05-19T05:29:32;8.30;;;3.60;;
74926;SDS011;63488;48.092;-1.640;2023-05-19T05:31:57;12.32;;;4.20;;
74926;SDS011;63488;48.092;-1.640;2023-05-19T05:34:23;9.07;;;3.88;;
74926;SDS011;63488;48.092;-1.640;2023-05-19T05:36:48;9.30;;;3.53;;
74926;SDS011;63488;48.092;-1.640;2023-05-19T05:39:13;8.45;;;4.18;;
74926;SDS011;63488;48.092;-1.640;2023-05-19T05:41:39;7.90;;;3.95;;
74926;SDS011;63488;48.092;-1.640;2023-05-19T05:44:04;6.97;;;3.78;;
74926;SDS011;63488;48.092;-1.640;2023-05-19T05:46:30;9.85;;;4.50;;
74926;SDS011;63488;48.092;-1.640;2023-05-19T05:48:56;8.93;;;4.15;;
74926;SDS011;63488;48.092;-1.640;2023-05-19T05:51:21;7.93;;;4.03;;
74926;SDS011;63488;48.092;-1.640;2023-05-19T05:53:52;8.70;;;3.70;;
74926;SDS011;63488;48.092;-1.640;2023-05-19T05:56:18;6.93;;;3.60;;
74926;SDS011;63488;48.092;-1.640;2023-05-19T05:58:43;7.45;;;3.70;;
74926;SDS011;63488;48.092;-1.640;2023-05-19T06:01:09;8.40;;;4.40;;
74926;SDS011;63488;48.092;-1.640;2023-05-19T06:03:36;10.80;;;4.63;;
74926;SDS011;63488;48.092;-1.640;2023-05-19T06:06:02;10.32;;;4.20;;
74926;SDS011;63488;48.092;-1.640;2023-05-19T06:08:27;7.57;;;3.67;;
74926;SDS011;63488;48.092;-1.640;2023-05-19T06:10:52;11.02;;;4.15;;
74926;SDS011;63488;48.092;-1.640;2023-05-19T06:13:18;10.18;;;4.22;;
74926;SDS011;63488;48.092;-1.640;2023-05-19T06:15:46;9.43;;;3.88;;
74926;SDS011;63488;48.092;-1.640;2023-05-19T06:18:11;7.88;;;4.05;;
74926;SDS011;63488;48.092;-1.640;2023-05-19T06:20:37;8.68;;;4.28;;
74926;SDS011;63488;48.092;-1.640;2023-05-19T06:23:02;8.75;;;3.80;;
74926;SDS011;63488;48.092;-1.640;2023-05-19T06:25:27;11.63;;;4.32;;
74926;SDS011;63488;48.092;-1.640;2023-05-19T06:27:53;11.00;;;5.03;;
74926;SDS011;63488;48.092;-1.640;2023-05-19T06:30:18;10.52;;;4.97;;
74926;SDS011;63488;48.092;-1.640;2023-05-19T06:32:43;8.95;;;4.45;;
74926;SDS011;63488;48.092;-1.640;2023-05-19T06:35:10;9.68;;;5.10;;
74926;SDS011;63488;48.092;-1.640;2023-05-19T06:37:35;8.77;;;4.55;;
74926;SDS011;63488;48.092;-1.640;2023-05-19T06:40:00;10.85;;;4.38;;
74926;SDS011;63488;48.092;-1.640;2023-05-19T06:42:26;8.65;;;4.45;;
74926;SDS011;63488;48.092;-1.640;2023-05-19T06:44:51;9.77;;;4.72;;
74926;SDS011;63488;48.092;-1.640;2023-05-19T06:47:17;7.75;;;4.45;;
74926;SDS011;63488;48.092;-1.640;2023-05-19T06:49:45;10.18;;;4.78;;
74926;SDS011;63488;48.092;-1.640;2023-05-19T06:52:14;9.63;;;4.65;;
74926;SDS011;63488;48.092;-1.640;2023-05-19T06:54:39;9.27;;;4.68;;
74926;SDS011;63488;48.092;-1.640;2023-05-19T06:57:05;15.88;;;5.35;;
74926;SDS011;63488;48.092;-1.640;2023-05-19T06:59:30;10.60;;;5.22;;
74926;SDS011;63488;48.092;-1.640;2023-05-19T07:01:55;11.85;;;4.95;;
74926;SDS011;63488;48.092;-1.640;2023-05-19T07:04:21;8.23;;;4.57;;
74926;SDS011;63488;48.092;-1.640;2023-05-19T07:06:46;11.55;;;4.75;;
74926;SDS011;63488;48.092;-1.640;2023-05-19T07:09:14;8.65;;;4.75;;
74926;SDS011;63488;48.092;-1.640;2023-05-19T07:11:39;10.65;;;4.72;;
74926;SDS011;63488;48.092;-1.640;2023-05-19T07:14:04;12.05;;;5.20;;
74926;SDS011;63488;48.092;-1.640;2023-05-19T07:16:30;7.97;;;4.75;;
74926;SDS011;63488;48.092;-1.640;2023-05-19T07:18:55;11.70;;;5.38;;
74926;SDS011;63488;48.092;-1.640;2023-05-19T07:21:21;9.35;;;5.10;;
74926;SDS011;63488;48.092;-1.640;2023-05-19T07:23:46;10.55;;;4.85;;
74926;SDS011;63488;48.092;-1.640;2023-05-19T07:26:11;11.00;;;4.97;;
74926;SDS011;63488;48.092;-1.640;2023-05-19T07:28:37;9.52;;;5.32;;
74926;SDS011;63488;48.092;-1.640;2023-05-19T07:31:02;10.50;;;5.80;;
74926;SDS011;63488;48.092;-1.640;2023-05-19T07:33:28;9.40;;;5.22;;
74926;SDS011;63488;48.092;-1.640;2023-05-19T07:35:53;9.45;;;5.20;;
74926;SDS011;63488;48.092;-1.640;2023-05-19T07:38:18;10.85;;;5.10;;
74926;SDS011;63488;48.092;-1.640;2023-05-19T07:40:44;11.93;;;5.25;;
74926;SDS011;63488;48.092;-1.640;2023-05-19T07:43:09;13.32;;;5.47;;
74926;SDS011;63488;48.092;-1.640;2023-05-19T07:45:35;9.88;;;4.82;;
74926;SDS011;63488;48.092;-1.640;2023-05-19T07:48:01;13.18;;;5.28;;
74926;SDS011;63488;48.092;-1.640;2023-05-19T07:50:26;11.75;;;4.95;;
74926;SDS011;63488;48.092;-1.640;2023-05-19T07:52:51;8.10;;;5.07;;
74926;SDS011;63488;48.092;-1.640;2023-05-19T07:55:18;13.70;;;5.72;;
74926;SDS011;63488;48.092;-1.640;2023-05-19T07:57:43;12.00;;;5.60;;
74926;SDS011;63488;48.092;-1.640;2023-05-19T08:00:08;8.82;;;4.95;;
74926;SDS011;63488;48.092;-1.640;2023-05-19T08:02:36;10.60;;;5.60;;
74926;SDS011;63488;48.092;-1.640;2023-05-19T08:05:01;12.52;;;6.50;;
74926;SDS011;63488;48.092;-1.640;2023-05-19T08:07:27;8.63;;;5.80;;
74926;SDS011;63488;48.092;-1.640;2023-05-19T08:09:52;10.73;;;5.20;;
74926;SDS011;63488;48.092;-1.640;2023-05-19T08:12:17;10.63;;;4.97;;
74926;SDS011;63488;48.092;-1.640;2023-05-19T08:14:43;10.27;;;5.20;;
74926;SDS011;63488;48.092;-1.640;2023-05-19T08:17:08;9.57;;;4.72;;
74926;SDS011;63488;48.092;-1.640;2023-05-19T08:19:34;13.82;;;6.63;;
74926;SDS011;63488;48.092;-1.640;2023-05-19T08:21:59;11.70;;;5.20;;
74926;SDS011;63488;48.092;-1.640;2023-05-19T08:24:25;11.15;;;6.00;;
74926;SDS011;63488;48.092;-1.640;2023-05-19T08:26:53;9.52;;;5.95;;
74926;SDS011;63488;48.092;-1.640;2023-05-19T08:29:19;12.10;;;5.55;;
74926;SDS011;63488;48.092;-1.640;2023-05-19T08:31:44;10.38;;;5.30;;
74926;SDS011;63488;48.092;-1.640;2023-05-19T08:34:10;9.32;;;5.40;;
74926;SDS011;63488;48.092;-1.640;2023-05-19T08:36:35;9.10;;;5.00;;
74926;SDS011;63488;48.092;-1.640;2023-05-19T08:39:00;10.18;;;5.03;;
74926;SDS011;63488;48.092;-1.640;2023-05-19T08:41:27;11.88;;;5.63;;
74926;SDS011;63488;48.092;-1.640;2023-05-19T08:44:15;11.43;;;4.53;;
74926;SDS011;63488;48.092;-1.640;2023-05-19T08:46:39;9.60;;;4.80;;
74926;SDS011;63488;48.092;-1.640;2023-05-19T08:49:07;13.52;;;4.70;;
74926;SDS011;63488;48.092;-1.640;2023-05-19T08:51:38;16.13;;;5.45;;
74926;SDS011;63488;48.092;-1.640;2023-05-19T08:54:08;9.90;;;4.30;;
74926;SDS011;63488;48.092;-1.640;2023-05-19T08:56:36;9.05;;;4.57;;
74926;SDS011;63488;48.092;-1.640;2023-05-19T08:59:01;9.38;;;5.82;;
74926;SDS011;63488;48.092;-1.640;2023-05-19T09:01:28;9.38;;;4.45;;
74926;SDS011;63488;48.092;-1.640;2023-05-19T09:03:54;10.10;;;5.03;;
74926;SDS011;63488;48.092;-1.640;2023-05-19T09:06:19;10.63;;;5.30;;
74926;SDS011;63488;48.092;-1.640;2023-05-19T09:08:45;11.52;;;5.55;;
74926;SDS011;63488;48.092;-1.640;2023-05-19T09:11:11;11.70;;;4.93;;
74926;SDS011;63488;48.092;-1.640;2023-05-19T09:13:36;10.35;;;4.72;;
74926;SDS011;63488;48.092;-1.640;2023-05-19T09:16:02;9.85;;;4.50;;
74926;SDS011;63488;48.092;-1.640;2023-05-19T09:18:28;9.73;;;4.65;;
74926;SDS011;63488;48.092;-1.640;2023-05-19T09:20:58;7.35;;;3.97;;
74926;SDS011;63488;48.092;-1.640;2023-05-19T09:23:25;11.38;;;4.63;;
74926;SDS011;63488;48.092;-1.640;2023-05-19T09:25:52;8.57;;;3.90;;
74926;SDS011;63488;48.092;-1.640;2023-05-19T09:28:24;7.05;;;4.18;;
74926;SDS011;63488;48.092;-1.640;2023-05-19T09:30:58;6.82;;;4.18;;
74926;SDS011;63488;48.092;-1.640;2023-05-19T09:33:24;8.02;;;4.35;;
74926;SDS011;63488;48.092;-1.640;2023-05-19T09:35:49;11.27;;;4.57;;
74926;SDS011;63488;48.092;-1.640;2023-05-19T09:38:18;9.57;;;3.88;;
74926;SDS011;63488;48.092;-1.640;2023-05-19T09:40:43;10.65;;;4.45;;
74926;SDS011;63488;48.092;-1.640;2023-05-19T09:43:09;10.27;;;4.20;;
74926;SDS011;63488;48.092;-1.640;2023-05-19T09:45:34;11.80;;;4.05;;
74926;SDS011;63488;48.092;-1.640;2023-05-19T09:48:03;9.07;;;4.80;;
74926;SDS011;63488;48.092;-1.640;2023-05-19T09:50:29;8.73;;;4.82;;
74926;SDS011;63488;48.092;-1.640;2023-05-19T09:52:56;8.45;;;3.97;;
74926;SDS011;63488;48.092;-1.640;2023-05-19T09:55:24;8.10;;;3.78;;
74926;SDS011;63488;48.092;-1.640;2023-05-19T09:57:50;9.02;;;3.97;;
74926;SDS011;63488;48.092;-1.640;2023-05-19T10:00:16;11.43;;;3.63;;
74926;SDS011;63488;48.092;-1.640;2023-05-19T10:02:43;11.10;;;3.78;;
74926;SDS011;63488;48.092;-1.640;2023-05-19T10:05:13;9.15;;;3.75;;
74926;SDS011;63488;48.092;-1.640;2023-05-19T10:07:42;8.43;;;3.67;;
74926;SDS011;63488;48.092;-1.640;2023-05-19T10:10:10;8.73;;;4.30;;
74926;SDS011;63488;48.092;-1.640;2023-05-19T10:12:37;7.30;;;3.03;;
74926;SDS011;63488;48.092;-1.640;2023-05-19T10:15:03;10.35;;;4.10;;
74926;SDS011;63488;48.092;-1.640;2023-05-19T10:17:28;8.73;;;3.85;;
74926;SDS011;63488;48.092;-1.640;2023-05-19T10:19:54;8.20;;;3.60;;
74926;SDS011;63488;48.092;-1.640;2023-05-19T10:22:20;9.65;;;3.28;;
74926;SDS011;63488;48.092;-1.640;2023-05-19T10:24:46;8.70;;;2.92;;
74926;SDS011;63488;48.092;-1.640;2023-05-19T10:27:12;6.93;;;3.28;;
74926;SDS011;63488;48.092;-1.640;2023-05-19T10:29:39;8.45;;;3.25;;
74926;SDS011;63488;48.092;-1.640;2023-05-19T10:32:10;7.55;;;3.60;;
74926;SDS011;63488;48.092;-1.640;2023-05-19T10:39:40;7.88;;;3.25;;
74926;SDS011;63488;48.092;-1.640;2023-05-19T10:46:59;8.30;;;2.70;;
74926;SDS011;63488;48.092;-1.640;2023-05-19T10:49:25;7.28;;;3.20;;
74926;SDS011;63488;48.092;-1.640;2023-05-19T10:51:50;6.90;;;3.03;;
74926;SDS011;63488;48.092;-1.640;2023-05-19T10:54:16;9.82;;;3.28;;
74926;SDS011;63488;48.092;-1.640;2023-05-19T10:56:42;8.85;;;3.25;;
74926;SDS011;63488;48.092;-1.640;2023-05-19T10:59:29;6.93;;;3.00;;
74926;SDS011;63488;48.092;-1.640;2023-05-19T11:01:56;8.32;;;3.22;;
74926;SDS011;63488;48.092;-1.640;2023-05-19T11:04:37;7.05;;;3.30;;
74926;SDS011;63488;48.092;-1.640;2023-05-19T11:07:02;8.13;;;3.22;;
74926;SDS011;63488;48.092;-1.640;2023-05-19T11:09:28;6.15;;;3.15;;
74926;SDS011;63488;48.092;-1.640;2023-05-19T11:12:00;6.28;;;3.10;;
74926;SDS011;63488;48.092;-1.640;2023-05-19T11:14:27;9.05;;;3.30;;
74926;SDS011;63488;48.092;-1.640;2023-05-19T11:16:56;7.57;;;3.20;;
74926;SDS011;63488;48.092;-1.640;2023-05-19T11:19:25;5.55;;;3.05;;
74926;SDS011;63488;48.092;-1.640;2023-05-19T11:21:51;9.45;;;3.55;;
74926;SDS011;63488;48.092;-1.640;2023-05-19T11:32:31;6.40;;;2.78;;
74926;SDS011;63488;48.092;-1.640;2023-05-19T11:34:57;6.57;;;3.40;;
74926;SDS011;63488;48.092;-1.640;2023-05-19T11:37:23;6.35;;;3.03;;
74926;SDS011;63488;48.092;-1.640;2023-05-19T11:39:50;7.57;;;3.70;;
74926;SDS011;63488;48.092;-1.640;2023-05-19T11:42:16;9.10;;;3.20;;
74926;SDS011;63488;48.092;-1.640;2023-05-19T11:44:44;5.68;;;3.35;;
74926;SDS011;63488;48.092;-1.640;2023-05-19T11:47:14;6.30;;;3.42;;
74926;SDS011;63488;48.092;-1.640;2023-05-19T11:49:46;5.63;;;2.95;;
74926;SDS011;63488;48.092;-1.640;2023-05-19T11:52:15;6.60;;;3.70;;
74926;SDS011;63488;48.092;-1.640;2023-05-19T11:54:43;6.90;;;3.38;;
74926;SDS011;63488;48.092;-1.640;2023-05-19T11:57:12;6.87;;;3.77;;
74926;SDS011;63488;48.092;-1.640;2023-05-19T11:59:38;7.78;;;3.42;;
74926;SDS011;63488;48.092;-1.640;2023-05-19T12:04:48;6.35;;;3.40;;
74926;SDS011;63488;48.092;-1.640;2023-05-19T12:07:14;6.20;;;2.88;;
74926;SDS011;63488;48.092;-1.640;2023-05-19T12:09:42;7.95;;;3.50;;
74926;SDS011;63488;48.092;-1.640;2023-05-19T12:12:07;6.53;;;3.50;;
74926;SDS011;63488;48.092;-1.640;2023-05-19T12:14:32;6.65;;;3.42;;
74926;SDS011;63488;48.092;-1.640;2023-05-19T12:16:58;9.27;;;3.40;;
74926;SDS011;63488;48.092;-1.640;2023-05-19T12:19:23;8.73;;;4.25;;
74926;SDS011;63488;48.092;-1.640;2023-05-19T12:21:50;8.27;;;3.70;;
74926;SDS011;63488;48.092;-1.640;2023-05-19T12:24:15;6.63;;;3.50;;
74926;SDS011;63488;48.092;-1.640;2023-05-19T12:26:41;6.85;;;3.65;;
74926;SDS011;63488;48.092;-1.640;2023-05-19T12:29:07;7.15;;;3.67;;
74926;SDS011;63488;48.092;-1.640;2023-05-19T12:31:32;8.65;;;4.20;;
74926;SDS011;63488;48.092;-1.640;2023-05-19T12:33:58;7.82;;;3.85;;
74926;SDS011;63488;48.092;-1.640;2023-05-19T12:36:25;6.82;;;3.97;;
74926;SDS011;63488;48.092;-1.640;2023-05-19T12:38:54;8.25;;;3.83;;
74926;SDS011;63488;48.092;-1.640;2023-05-19T12:41:20;7.47;;;4.35;;
74926;SDS011;63488;48.092;-1.640;2023-05-19T12:43:47;8.52;;;4.38;;
74926;SDS011;63488;48.092;-1.640;2023-05-19T12:46:12;5.57;;;3.78;;
74926;SDS011;63488;48.092;-1.640;2023-05-19T12:48:43;10.10;;;4.68;;
74926;SDS011;63488;48.092;-1.640;2023-05-19T12:51:08;11.30;;;4.78;;
74926;SDS011;63488;48.092;-1.640;2023-05-19T12:53:35;6.68;;;4.32;;
74926;SDS011;63488;48.092;-1.640;2023-05-19T12:56:00;6.75;;;3.45;;
74926;SDS011;63488;48.092;-1.640;2023-05-19T12:58:26;9.48;;;5.28;;
74926;SDS011;63488;48.092;-1.640;2023-05-19T13:00:51;10.02;;;4.78;;
74926;SDS011;63488;48.092;-1.640;2023-05-19T13:03:20;9.60;;;4.55;;
74926;SDS011;63488;48.092;-1.640;2023-05-19T13:05:46;11.00;;;4.05;;
74926;SDS011;63488;48.092;-1.640;2023-05-19T13:08:13;7.25;;;4.47;;
74926;SDS011;63488;48.092;-1.640;2023-05-19T13:10:40;11.88;;;4.55;;
74926;SDS011;63488;48.092;-1.640;2023-05-19T13:13:06;7.75;;;4.25;;
74926;SDS011;63488;48.092;-1.640;2023-05-19T13:15:33;10.13;;;4.75;;
74926;SDS011;63488;48.092;-1.640;2023-05-19T13:17:59;9.98;;;4.60;;
74926;SDS011;63488;48.092;-1.640;2023-05-19T13:20:26;10.13;;;4.68;;
74926;SDS011;63488;48.092;-1.640;2023-05-19T13:22:52;9.40;;;4.25;;
74926;SDS011;63488;48.092;-1.640;2023-05-19T13:25:17;9.13;;;4.32;;
74926;SDS011;63488;48.092;-1.640;2023-05-19T13:27:43;10.65;;;5.40;;
74926;SDS011;63488;48.092;-1.640;2023-05-19T13:30:10;9.85;;;5.45;;
74926;SDS011;63488;48.092;-1.640;2023-05-19T13:32:35;10.57;;;5.90;;
74926;SDS011;63488;48.092;-1.640;2023-05-19T13:35:01;8.82;;;5.70;;
74926;SDS011;63488;48.092;-1.640;2023-05-19T13:37:26;7.97;;;4.88;;
74926;SDS011;63488;48.092;-1.640;2023-05-19T13:39:52;8.63;;;4.82;;
74926;SDS011;63488;48.092;-1.640;2023-05-19T13:42:17;10.35;;;5.05;;
74926;SDS011;63488;48.092;-1.640;2023-05-19T13:44:44;8.65;;;4.85;;
74926;SDS011;63488;48.092;-1.640;2023-05-19T13:47:12;13.35;;;5.80;;
74926;SDS011;63488;48.092;-1.640;2023-05-19T13:49:38;9.65;;;5.18;;
74926;SDS011;63488;48.092;-1.640;2023-05-19T13:52:05;9.35;;;5.03;;
74926;SDS011;63488;48.092;-1.640;2023-05-19T13:54:32;8.18;;;4.47;;
74926;SDS011;63488;48.092;-1.640;2023-05-19T13:56:59;7.22;;;4.82;;
74926;SDS011;63488;48.092;-1.640;2023-05-19T13:59:24;9.55;;;5.03;;
74926;SDS011;63488;48.092;-1.640;2023-05-19T14:01:50;11.55;;;4.90;;
74926;SDS011;63488;48.092;-1.640;2023-05-19T14:04:16;11.13;;;5.78;;
74926;SDS011;63488;48.092;-1.640;2023-05-19T14:06:42;9.98;;;5.00;;
74926;SDS011;63488;48.092;-1.640;2023-05-19T14:09:07;8.50;;;5.07;;
74926;SDS011;63488;48.092;-1.640;2023-05-19T14:11:32;10.50;;;5.03;;
74926;SDS011;63488;48.092;-1.640;2023-05-19T14:13:58;12.85;;;6.15;;
74926;SDS011;63488;48.092;-1.640;2023-05-19T14:16:23;9.55;;;5.32;;
74926;SDS011;63488;48.092;-1.640;2023-05-19T14:18:50;7.68;;;4.88;;
74926;SDS011;63488;48.092;-1.640;2023-05-19T14:21:15;10.93;;;5.38;;
74926;SDS011;63488;48.092;-1.640;2023-05-19T14:23:41;13.18;;;5.30;;
74926;SDS011;63488;48.092;-1.640;2023-05-19T14:26:06;7.60;;;4.55;;
74926;SDS011;63488;48.092;-1.640;2023-05-19T14:28:31;9.73;;;4.50;;
74926;SDS011;63488;48.092;-1.640;2023-05-19T14:30:57;10.50;;;4.82;;
74926;SDS011;63488;48.092;-1.640;2023-05-19T14:33:22;9.68;;;4.90;;
74926;SDS011;63488;48.092;-1.640;2023-05-19T14:35:47;8.13;;;4.97;;
74926;SDS011;63488;48.092;-1.640;2023-05-19T14:38:13;10.40;;;5.53;;
74926;SDS011;63488;48.092;-1.640;2023-05-19T14:40:38;10.80;;;5.03;;
74926;SDS011;63488;48.092;-1.640;2023-05-19T14:43:07;9.00;;;5.38;;
74926;SDS011;63488;48.092;-1.640;2023-05-19T14:45:32;9.68;;;5.00;;
74926;SDS011;63488;48.092;-1.640;2023-05-19T14:47:59;11.93;;;5.30;;
74926;SDS011;63488;48.092;-1.640;2023-05-19T14:50:26;10.88;;;6.10;;
74926;SDS011;63488;48.092;-1.640;2023-05-19T14:52:52;10.35;;;5.07;;
74926;SDS011;63488;48.092;-1.640;2023-05-19T14:55:19;7.78;;;5.00;;
74926;SDS011;63488;48.092;-1.640;2023-05-19T14:57:44;11.48;;;5.22;;
74926;SDS011;63488;48.092;-1.640;2023-05-19T15:00:10;11.57;;;6.28;;
74926;SDS011;63488;48.092;-1.640;2023-05-19T15:02:36;11.50;;;5.60;;